Time;durP1;ratioP1;P1;durP2;ratioP2;P2;SDS_P1;SDS_P2;PMS_P1;PMS_P2;Temp;Humidity;BMP_temperature;BMP_pressure;BME280_temperature;BME280_humidity;BME280_pressure;Samples;Min_cycle;Max_cycle;Signal;HPM_P1;HPM_P2
2022/01/10 00:01:31;;;;;;;10.20;4.00;;;4.70;99.90;;;;;;4974170;28;20567;-65
2022/01/10 00:04:00;;;;;;;14.57;4.80;;;4.70;99.90;;;;;;4974615;28;20878;-65
2022/01/10 00:06:28;;;;;;;16.87;5.03;;;4.70;99.90;;;;;;4973830;28;20474;-65
2022/01/10 00:08:57;;;;;;;12.10;5.37;;;4.70;99.90;;;;;;4974011;28;20808;-65
2022/01/10 00:11:25;;;;;;;10.83;4.83;;;4.80;99.90;;;;;;4974080;28;20997;-65
2022/01/10 00:13:53;;;;;;;18.23;6.40;;;4.80;99.90;;;;;;4954881;28;20474;-65
2022/01/10 00:16:22;;;;;;;15.57;6.33;;;5.00;99.90;;;;;;4954938;28;20490;-65
2022/01/10 00:18:50;;;;;;;12.60;6.90;;;4.80;99.90;;;;;;4973407;28;20469;-65
2022/01/10 00:21:18;;;;;;;14.13;8.20;;;4.80;99.90;;;;;;4973961;28;20894;-65
2022/01/10 00:23:46;;;;;;;14.70;9.07;;;4.80;99.90;;;;;;4973721;28;20466;-65
2022/01/10 00:26:16;;;;;;;16.73;8.93;;;4.70;99.90;;;;;;4973774;28;20531;-65
2022/01/10 00:28:44;;;;;;;20.83;9.93;;;4.70;99.90;;;;;;4973103;28;20264;-65
2022/01/10 00:31:12;;;;;;;14.97;9.77;;;4.70;99.90;;;;;;4974055;28;20474;-65
2022/01/10 00:33:40;;;;;;;19.37;9.97;;;4.60;99.90;;;;;;4972357;28;20484;-65
2022/01/10 00:36:09;;;;;;;15.40;10.20;;;4.70;99.90;;;;;;4973589;28;20508;-65
2022/01/10 00:38:37;;;;;;;18.67;10.63;;;4.60;99.90;;;;;;4973303;28;20533;-65
2022/01/10 00:41:05;;;;;;;18.73;10.10;;;4.60;99.90;;;;;;4973642;28;20481;-65
2022/01/10 00:43:39;;;;;;;16.00;9.57;;;4.60;99.90;;;;;;4973490;28;20486;-65
2022/01/10 00:46:08;;;;;;;17.57;8.77;;;4.50;99.90;;;;;;4973732;28;20484;-65
2022/01/10 00:48:36;;;;;;;16.17;8.73;;;4.50;99.90;;;;;;4972850;28;20485;-65
2022/01/10 00:51:04;;;;;;;19.03;9.17;;;4.50;99.90;;;;;;4954184;28;20512;-65
2022/01/10 00:53:32;;;;;;;16.90;8.00;;;4.40;99.90;;;;;;4970829;28;20488;-65
2022/01/10 00:56:00;;;;;;;14.97;7.50;;;4.30;99.90;;;;;;4973488;28;20889;-65
2022/01/10 00:58:29;;;;;;;12.77;6.80;;;4.30;99.90;;;;;;4971773;28;21001;-65
2022/01/10 01:00:58;;;;;;;16.27;5.90;;;4.30;99.90;;;;;;4971977;28;20967;-65
2022/01/10 01:03:26;;;;;;;12.50;6.67;;;4.30;99.90;;;;;;4971330;28;20504;-65
2022/01/10 01:05:55;;;;;;;11.40;5.47;;;4.30;99.90;;;;;;4973109;28;20865;-65
2022/01/10 01:08:25;;;;;;;11.57;4.97;;;4.30;99.90;;;;;;4972601;28;20484;-65
2022/01/10 01:11:19;;;;;;;14.00;4.90;;;4.20;99.90;;;;;;4973163;28;20466;-65
2022/01/10 01:14:00;;;;;;;10.72;4.94;;;4.30;99.90;;;;;;4885820;28;10001368;-65
2022/01/10 01:16:44;;;;;;;14.77;4.47;;;4.30;99.90;;;;;;1369303;28;10001877;-65
2022/01/10 01:24:43;;;;;;;11.27;4.60;;;4.30;99.90;;;;;;4972757;28;20477;-65
2022/01/10 01:27:12;;;;;;;12.87;4.77;;;4.20;99.90;;;;;;4972576;28;20482;-65
2022/01/10 01:29:40;;;;;;;13.00;5.03;;;4.20;99.90;;;;;;4970999;28;20553;-65
2022/01/10 01:32:10;;;;;;;13.60;5.20;;;4.20;99.90;;;;;;4972818;28;20476;-65
2022/01/10 01:34:38;;;;;;;10.17;4.27;;;4.30;99.90;;;;;;4972648;28;20468;-65
2022/01/10 01:37:09;;;;;;;12.80;4.43;;;4.20;99.90;;;;;;4970950;28;20849;-65
2022/01/10 01:39:37;;;;;;;12.13;4.40;;;4.20;99.90;;;;;;4971134;28;20531;-65
2022/01/10 01:42:18;;;;;;;9.83;4.53;;;4.10;99.90;;;;;;4971050;28;21066;-65
2022/01/10 01:44:49;;;;;;;10.33;4.30;;;4.10;99.90;;;;;;4971086;28;20873;-65
2022/01/10 01:47:18;;;;;;;12.10;4.63;;;4.10;99.90;;;;;;4970944;28;20529;-65
2022/01/10 01:49:48;;;;;;;11.40;4.20;;;4.00;99.90;;;;;;4970424;28;20560;-65
2022/01/10 01:52:16;;;;;;;11.47;4.83;;;4.00;99.90;;;;;;4970922;28;20531;-65
2022/01/10 01:54:44;;;;;;;10.83;4.70;;;4.00;99.90;;;;;;4970823;28;20889;-65
2022/01/10 01:57:14;;;;;;;12.80;5.20;;;3.90;99.90;;;;;;4972303;28;21016;-65
2022/01/10 01:59:42;;;;;;;10.67;4.50;;;4.00;99.90;;;;;;4970729;28;20478;-65
2022/01/10 02:02:10;;;;;;;15.63;5.70;;;4.10;99.90;;;;;;4970581;28;20591;-65
2022/01/10 02:04:40;;;;;;;11.37;5.03;;;4.10;99.90;;;;;;4972044;28;20537;-65
2022/01/10 02:07:09;;;;;;;12.43;4.37;;;4.20;99.90;;;;;;4971831;28;20473;-65
2022/01/10 02:09:40;;;;;;;16.27;5.20;;;4.20;99.90;;;;;;4970370;28;20488;-65
2022/01/10 02:12:09;;;;;;;15.90;5.60;;;4.10;99.90;;;;;;4972114;28;20473;-65
2022/01/10 02:14:40;;;;;;;9.80;4.60;;;4.10;99.90;;;;;;4970226;28;21006;-65
2022/01/10 02:17:12;;;;;;;8.70;4.40;;;4.00;99.90;;;;;;4970159;28;20484;-65
2022/01/10 02:19:55;;;;;;;16.03;4.70;;;4.10;99.90;;;;;;4970445;28;20477;-65
2022/01/10 02:22:24;;;;;;;10.17;5.07;;;4.20;99.90;;;;;;4970235;28;20546;-65
2022/01/10 02:25:05;;;;;;;14.53;4.90;;;4.10;99.90;;;;;;4970301;28;20503;-65
2022/01/10 02:27:34;;;;;;;10.00;3.97;;;4.10;99.90;;;;;;4970202;28;20485;-65
2022/01/10 02:30:02;;;;;;;9.37;4.60;;;4.10;99.90;;;;;;4972086;28;20999;-65
2022/01/10 02:32:34;;;;;;;8.73;4.40;;;4.10;99.90;;;;;;4971768;28;20482;-65
2022/01/10 02:35:04;;;;;;;11.17;4.43;;;4.00;99.90;;;;;;4970688;28;20593;-65
2022/01/10 02:37:33;;;;;;;11.80;4.60;;;4.00;99.90;;;;;;4971774;28;20543;-65
2022/01/10 02:40:06;;;;;;;13.17;3.97;;;4.00;99.90;;;;;;4970277;28;20473;-65
2022/01/10 02:42:36;;;;;;;10.77;4.97;;;3.90;99.90;;;;;;4970122;28;20484;-65
2022/01/10 02:45:05;;;;;;;11.40;4.13;;;3.90;99.90;;;;;;4970418;28;20537;-65
2022/01/10 02:47:33;;;;;;;10.70;4.20;;;3.90;99.90;;;;;;4970008;28;21029;-64
2022/01/10 02:50:04;;;;;;;12.73;4.50;;;3.90;99.90;;;;;;4971922;28;20580;-65
2022/01/10 02:52:32;;;;;;;8.43;4.03;;;3.90;99.90;;;;;;4970110;28;20481;-65
2022/01/10 02:55:01;;;;;;;11.10;3.90;;;3.90;99.90;;;;;;4970320;28;20472;-65
2022/01/10 02:57:31;;;;;;;12.67;4.87;;;4.10;99.90;;;;;;4961724;28;20858;-65
2022/01/10 03:02:37;;;;;;;11.83;4.73;;;4.00;99.90;;;;;;4969672;28;20504;-65
2022/01/10 03:05:10;;;;;;;12.40;5.17;;;3.90;99.90;;;;;;4970366;28;20494;-65
2022/01/10 03:07:39;;;;;;;16.83;5.37;;;3.90;99.90;;;;;;4971246;28;20564;-65
2022/01/10 03:10:08;;;;;;;13.37;4.77;;;3.90;99.90;;;;;;4970985;28;20474;-65
2022/01/10 03:12:37;;;;;;;13.17;4.90;;;3.90;99.90;;;;;;4970343;28;20485;-65
2022/01/10 03:15:18;;;;;;;9.23;4.48;;;4.00;99.90;;;;;;3414480;28;10022460;-65
2022/01/10 03:17:48;;;;;;;11.85;4.65;;;3.90;99.90;;;;;;3251802;28;10002027;-65
2022/01/10 03:20:18;;;;;;;14.80;4.97;;;3.90;99.90;;;;;;4970225;28;20243;-65
2022/01/10 03:22:47;;;;;;;9.87;4.90;;;4.10;99.90;;;;;;4967669;28;20538;-65
2022/01/10 03:25:15;;;;;;;10.80;5.83;;;4.20;99.90;;;;;;4968736;28;21001;-65
2022/01/10 03:27:46;;;;;;;15.27;6.03;;;4.10;99.90;;;;;;4969800;28;20485;-65
2022/01/10 03:30:15;;;;;;;12.83;5.60;;;4.20;99.90;;;;;;4970771;28;20531;-65
2022/01/10 03:32:46;;;;;;;12.33;5.83;;;4.20;99.90;;;;;;4971662;28;20480;-65
2022/01/10 03:35:26;;;;;;;16.33;5.33;;;4.20;99.90;;;;;;4971678;28;20483;-65
2022/01/10 03:37:55;;;;;;;11.87;6.13;;;4.20;99.90;;;;;;4971748;28;20478;-65
2022/01/10 03:40:25;;;;;;;15.27;6.27;;;4.20;99.90;;;;;;4971738;28;20470;-65
2022/01/10 03:42:57;;;;;;;11.37;6.03;;;4.30;99.90;;;;;;4971484;28;20473;-65
2022/01/10 03:45:25;;;;;;;13.40;5.80;;;4.10;99.90;;;;;;4972970;28;21001;-65
2022/01/10 03:47:54;;;;;;;12.07;5.40;;;4.00;99.90;;;;;;4971290;28;20473;-65
2022/01/10 03:50:26;;;;;;;14.03;5.27;;;3.90;99.90;;;;;;4972845;28;20474;-65
2022/01/10 03:52:54;;;;;;;12.60;5.93;;;4.30;99.90;;;;;;4974657;28;20879;-65
2022/01/10 03:55:22;;;;;;;15.50;6.63;;;4.60;99.90;;;;;;4973325;28;20477;-65
2022/01/10 03:57:51;;;;;;;13.70;6.43;;;4.60;99.90;;;;;;4972830;28;20468;-65
2022/01/10 04:00:19;;;;;;;14.57;6.53;;;4.50;99.90;;;;;;4973113;28;20998;-65
2022/01/10 04:02:54;;;;;;;17.93;7.07;;;4.40;99.90;;;;;;4974275;28;20493;-65
2022/01/10 04:05:29;;;;;;;12.97;5.97;;;4.20;99.90;;;;;;4973075;28;20516;-65
2022/01/10 04:07:57;;;;;;;15.93;6.80;;;4.50;99.90;;;;;;4974043;28;20507;-65
2022/01/10 04:10:25;;;;;;;16.93;6.57;;;4.80;99.90;;;;;;4972573;28;20491;-65
2022/01/10 04:12:53;;;;;;;14.93;7.47;;;4.80;99.90;;;;;;4972629;28;20501;-65
2022/01/10 04:15:22;;;;;;;18.27;8.20;;;5.00;99.90;;;;;;4972715;28;20480;-65
2022/01/10 04:17:55;;;;;;;17.00;8.03;;;5.10;99.90;;;;;;4972552;28;20575;-65
2022/01/10 04:20:24;;;;;;;16.77;7.83;;;4.90;99.90;;;;;;4972331;28;20497;-65
2022/01/10 04:22:54;;;;;;;18.90;7.80;;;4.90;99.90;;;;;;4972692;28;20481;-65
2022/01/10 04:25:23;;;;;;;16.10;7.57;;;5.00;99.90;;;;;;4972686;28;20929;-65
2022/01/10 04:27:51;;;;;;;19.10;7.80;;;4.90;99.90;;;;;;4973923;28;20496;-65
2022/01/10 04:30:27;;;;;;;15.02;6.40;;;4.50;99.90;;;;;;4972126;28;20418;-65
2022/01/10 04:32:57;;;;;;;9.70;5.57;;;4.20;99.90;;;;;;4972343;28;20237;-65
2022/01/10 04:35:26;;;;;;;13.30;5.43;;;4.40;99.90;;;;;;4973971;28;20474;-65
2022/01/10 04:37:57;;;;;;;15.47;6.37;;;4.40;99.90;;;;;;4971820;28;20509;-65
2022/01/10 04:40:27;;;;;;;12.53;6.60;;;4.30;99.90;;;;;;4972164;28;20506;-65
2022/01/10 04:42:56;;;;;;;13.77;6.27;;;4.20;99.90;;;;;;4971976;28;20472;-65
2022/01/10 04:45:25;;;;;;;12.97;5.77;;;4.40;99.90;;;;;;4971876;28;20684;-65
2022/01/10 04:47:53;;;;;;;14.10;6.77;;;4.40;99.90;;;;;;4973462;28;20491;-65
2022/01/10 04:53:05;;;;;;;16.53;8.07;;;5.10;99.90;;;;;;4956692;28;20538;-65
2022/01/10 04:55:34;;;;;;;20.67;9.00;;;5.20;99.90;;;;;;4954161;28;20569;-65
2022/01/10 04:58:02;;;;;;;15.33;6.90;;;5.10;99.90;;;;;;4954314;28;20517;-65
2022/01/10 05:00:30;;;;;;;15.07;7.63;;;4.70;99.90;;;;;;4953998;28;20477;-65
2022/01/10 05:02:58;;;;;;;14.27;7.23;;;4.50;99.90;;;;;;4972129;28;20841;-65
2022/01/10 05:05:28;;;;;;;14.97;6.90;;;4.30;99.90;;;;;;4973288;28;21079;-65
2022/01/10 05:07:56;;;;;;;11.77;5.60;;;4.20;99.90;;;;;;4971533;28;20470;-65
2022/01/10 05:10:25;;;;;;;10.53;7.53;;;4.50;99.90;;;;;;4971519;28;20477;-65
2022/01/10 05:12:54;;;;;;;12.47;7.23;;;4.80;99.90;;;;;;4971697;28;20474;-65
2022/01/10 05:15:22;;;;;;;15.70;8.57;;;4.90;99.90;;;;;;4971419;28;20518;-65
2022/01/10 05:17:51;;;;;;;19.07;8.70;;;5.00;99.90;;;;;;4971482;28;20478;-65
2022/01/10 05:20:34;;;;;;;12.84;7.19;;;4.90;99.90;;;;;;1804290;28;10024049;-65
2022/01/10 05:23:03;;;;;;;12.57;7.27;;;4.40;99.90;;;;;;4628775;28;10001098;-65
2022/01/10 05:25:36;;;;;;;16.43;6.93;;;4.20;99.90;;;;;;4973093;28;20489;-65
2022/01/10 05:28:06;;;;;;;20.13;8.90;;;4.30;99.90;;;;;;4967593;28;20487;-65
2022/01/10 05:30:34;;;;;;;16.70;9.40;;;4.80;99.90;;;;;;4968341;28;20487;-65
2022/01/10 05:33:05;;;;;;;24.83;11.10;;;5.10;99.90;;;;;;4971466;28;20483;-64
2022/01/10 05:35:39;;;;;;;22.30;11.03;;;5.10;99.90;;;;;;4971097;28;20492;-65
2022/01/10 05:38:08;;;;;;;22.53;10.13;;;5.50;99.90;;;;;;4971156;28;20532;-65
2022/01/10 05:40:37;;;;;;;25.23;13.30;;;5.50;99.90;;;;;;4971994;28;20611;-65
2022/01/10 05:43:07;;;;;;;24.80;13.13;;;5.50;99.90;;;;;;4971095;28;20481;-65
2022/01/10 05:45:36;;;;;;;31.97;14.63;;;5.40;99.90;;;;;;4970267;28;20545;-65
2022/01/10 05:48:11;;;;;;;24.87;11.60;;;5.50;99.90;;;;;;4971032;28;20466;-65
2022/01/10 05:50:42;;;;;;;32.67;13.23;;;5.20;99.90;;;;;;4969590;28;20842;-65
2022/01/10 05:53:11;;;;;;;28.07;15.47;;;5.40;99.90;;;;;;4970374;28;20524;-65
2022/01/10 05:55:41;;;;;;;31.07;16.40;;;5.80;99.90;;;;;;4971778;28;20488;-65
2022/01/10 05:58:13;;;;;;;31.67;16.73;;;5.90;99.90;;;;;;4971044;28;20503;-65
2022/01/10 06:00:41;;;;;;;33.47;17.77;;;5.90;99.90;;;;;;4972381;28;20563;-65
2022/01/10 06:03:10;;;;;;;35.13;18.50;;;6.10;99.90;;;;;;4971893;28;20493;-65
2022/01/10 06:05:47;;;;;;;37.27;19.13;;;6.10;99.90;;;;;;4955945;28;20469;-65
2022/01/10 06:08:15;;;;;;;42.20;18.90;;;6.00;99.90;;;;;;4957832;28;20530;-65
2022/01/10 06:10:45;;;;;;;37.83;18.53;;;6.10;99.90;;;;;;4952063;28;20482;-65
2022/01/10 06:13:26;;;;;;;46.37;20.07;;;5.90;99.90;;;;;;4949654;28;20573;-65
2022/01/10 06:15:55;;;;;;;42.87;20.47;;;5.90;99.90;;;;;;4950985;28;20486;-65
2022/01/10 06:18:23;;;;;;;49.20;20.80;;;5.90;99.90;;;;;;4951426;28;20544;-65
2022/01/10 06:20:51;;;;;;;49.83;22.57;;;5.80;99.90;;;;;;4966481;28;20543;-65
2022/01/10 06:23:19;;;;;;;48.13;23.30;;;5.90;99.90;;;;;;4964135;28;20475;-65
2022/01/10 06:25:49;;;;;;;45.93;23.37;;;5.90;99.90;;;;;;4956194;28;20472;-65
2022/01/10 06:28:18;;;;;;;51.07;22.73;;;5.90;99.90;;;;;;4962256;28;20498;-65
2022/01/10 06:30:50;;;;;;;55.20;22.73;;;5.90;99.90;;;;;;4947621;28;20520;-65
2022/01/10 06:33:18;;;;;;;41.10;21.60;;;5.60;99.90;;;;;;4952190;28;21005;-65
2022/01/10 06:35:46;;;;;;;40.30;20.63;;;5.00;99.90;;;;;;4968318;28;20554;-65
2022/01/10 06:38:14;;;;;;;38.63;20.23;;;4.50;99.90;;;;;;4996508;28;20495;-65
2022/01/10 06:40:44;;;;;;;36.90;17.63;;;4.40;99.90;;;;;;4963298;28;20502;-65
2022/01/10 06:43:14;;;;;;;36.00;15.30;;;4.30;99.90;;;;;;4991871;28;20828;-65
2022/01/10 06:45:42;;;;;;;31.17;17.60;;;4.50;99.90;;;;;;4969981;28;21020;-65
2022/01/10 06:48:10;;;;;;;38.00;18.30;;;4.80;99.90;;;;;;4970163;28;20474;-65
2022/01/10 06:50:39;;;;;;;36.40;18.47;;;5.10;99.90;;;;;;4969894;28;20474;-65
2022/01/10 06:53:08;;;;;;;42.10;21.30;;;5.50;99.90;;;;;;4969135;28;20555;-65
2022/01/10 06:55:36;;;;;;;49.40;23.20;;;5.70;99.90;;;;;;4970078;28;20246;-65
2022/01/10 06:58:07;;;;;;;48.67;23.47;;;5.70;99.90;;;;;;4966513;28;20485;-65
2022/01/10 07:00:38;;;;;;;41.27;21.23;;;5.00;99.90;;;;;;4961210;28;20509;-65
2022/01/10 07:03:08;;;;;;;32.97;17.10;;;4.60;99.90;;;;;;4962151;28;20474;-65
2022/01/10 07:05:40;;;;;;;34.83;18.73;;;4.90;99.90;;;;;;4954499;28;20565;-65
2022/01/10 07:08:13;;;;;;;43.67;20.57;;;5.40;99.90;;;;;;4954139;28;21014;-65
2022/01/10 07:10:59;;;;;;;48.43;22.83;;;5.70;99.90;;;;;;4958732;28;20476;-65
2022/01/10 07:13:40;;;;;;;40.03;19.21;;;5.70;99.90;;;;;;3336436;28;10002714;-65
2022/01/10 07:16:12;;;;;;;52.72;22.70;;;5.80;99.90;;;;;;2917213;28;10001941;-65
2022/01/10 07:18:42;;;;;;;48.03;23.53;;;5.90;99.90;;;;;;4972171;28;20723;-65
2022/01/10 07:21:20;;;;;;;43.43;21.93;;;5.80;99.90;;;;;;4955504;28;20482;-65
2022/01/10 07:23:49;;;;;;;52.80;22.37;;;5.40;99.90;;;;;;4953670;28;20477;-65
2022/01/10 07:26:17;;;;;;;52.23;21.97;;;5.50;99.90;;;;;;4955589;28;20493;-66
2022/01/10 07:28:45;;;;;;;53.33;24.53;;;5.50;99.90;;;;;;4955256;28;20516;-66
2022/01/10 07:31:15;;;;;;;56.37;26.20;;;5.80;99.90;;;;;;4955569;28;20482;-65
2022/01/10 07:33:43;;;;;;;56.93;25.50;;;5.20;99.90;;;;;;4955536;28;20492;-65
2022/01/10 07:36:12;;;;;;;48.23;24.17;;;4.80;99.90;;;;;;4967311;28;20484;-65
2022/01/10 07:38:40;;;;;;;43.67;23.10;;;4.90;99.90;;;;;;4955309;28;21026;-66
2022/01/10 07:41:09;;;;;;;43.10;21.33;;;4.70;99.90;;;;;;4955478;28;20497;-65
2022/01/10 07:43:37;;;;;;;32.47;17.83;;;4.60;99.90;;;;;;4954884;28;20484;-65
2022/01/10 07:46:10;;;;;;;36.27;19.37;;;4.50;99.90;;;;;;4953992;28;20489;-65
2022/01/10 07:48:43;;;;;;;33.73;19.10;;;4.50;99.90;;;;;;4955158;28;21013;-65
2022/01/10 07:51:12;;;;;;;29.83;17.77;;;4.50;99.90;;;;;;4954906;28;20475;-65
2022/01/10 07:53:41;;;;;;;31.40;17.53;;;4.40;99.90;;;;;;4971938;28;20484;-65
2022/01/10 07:56:10;;;;;;;26.73;15.80;;;4.40;99.90;;;;;;4974502;28;20988;-65
2022/01/10 07:58:39;;;;;;;27.70;15.73;;;4.40;99.90;;;;;;4974150;28;20483;-65
2022/01/10 08:01:12;;;;;;;27.50;16.23;;;4.40;99.90;;;;;;4974543;28;20477;-65
2022/01/10 08:03:42;;;;;;;28.40;16.07;;;4.40;99.90;;;;;;4972722;28;20893;-65
2022/01/10 08:06:10;;;;;;;24.70;15.27;;;4.40;99.90;;;;;;4974424;28;20505;-65
2022/01/10 08:08:38;;;;;;;23.23;15.83;;;4.40;99.90;;;;;;4973748;28;21061;-65
2022/01/10 08:11:06;;;;;;;21.93;15.20;;;4.40;99.90;;;;;;4961671;28;20923;-66
2022/01/10 08:13:34;;;;;;;22.23;13.40;;;4.40;99.90;;;;;;4953519;28;20836;-65
2022/01/10 08:16:03;;;;;;;19.43;13.80;;;4.40;99.90;;;;;;4955340;28;20506;-65
2022/01/10 08:18:33;;;;;;;21.97;14.67;;;4.40;99.90;;;;;;4973891;28;20536;-66
2022/01/10 08:21:06;;;;;;;24.13;14.60;;;4.60;99.90;;;;;;4974342;28;20477;-66
2022/01/10 08:23:34;;;;;;;26.37;15.17;;;4.60;99.90;;;;;;4973568;28;20546;-65
2022/01/10 08:26:03;;;;;;;26.47;14.87;;;4.50;99.90;;;;;;4974407;28;20827;-66
2022/01/10 08:28:35;;;;;;;28.10;14.13;;;4.50;99.90;;;;;;4970279;28;20493;-65
2022/01/10 08:31:03;;;;;;;24.80;13.90;;;4.40;99.90;;;;;;4973584;28;20482;-65
2022/01/10 08:33:32;;;;;;;21.57;13.37;;;4.50;99.90;;;;;;4974035;28;20557;-65
2022/01/10 08:36:00;;;;;;;27.67;14.90;;;4.40;99.90;;;;;;4974027;28;20829;-65
2022/01/10 08:38:29;;;;;;;25.87;14.00;;;4.50;99.90;;;;;;4973699;28;20841;-65
2022/01/10 08:40:58;;;;;;;37.57;15.50;;;4.40;99.90;;;;;;4977647;28;20477;-65
2022/01/10 08:43:26;;;;;;;38.00;14.23;;;4.50;99.90;;;;;;4973299;28;20473;-65
2022/01/10 08:45:54;;;;;;;44.60;14.90;;;4.50;99.90;;;;;;4973636;28;20503;-65
2022/01/10 08:48:22;;;;;;;34.00;14.67;;;4.50;99.90;;;;;;4973557;28;20563;-65
2022/01/10 08:50:51;;;;;;;54.87;15.37;;;4.60;99.90;;;;;;4973320;28;20479;-65
2022/01/10 08:53:20;;;;;;;38.13;15.50;;;4.50;99.90;;;;;;4973411;28;20552;-66
2022/01/10 08:55:54;;;;;;;46.47;15.30;;;4.50;99.90;;;;;;4973469;28;20489;-65
2022/01/10 08:58:25;;;;;;;37.70;14.00;;;4.40;99.90;;;;;;4973523;28;20892;-65
2022/01/10 09:00:53;;;;;;;47.83;16.20;;;4.40;99.90;;;;;;4973560;28;20488;-66
2022/01/10 09:03:21;;;;;;;36.20;14.47;;;4.40;99.90;;;;;;4973331;28;20474;-66
2022/01/10 09:05:50;;;;;;;37.03;14.93;;;4.40;99.90;;;;;;4973141;28;20495;-65
2022/01/10 09:08:18;;;;;;;39.03;15.43;;;4.50;99.90;;;;;;4972671;28;20845;-65
2022/01/10 09:10:46;;;;;;;36.50;14.77;;;4.50;99.90;;;;;;4972849;28;20522;-65
2022/01/10 09:13:21;;;;;;;50.40;16.58;;;4.50;99.90;;;;;;4720312;28;10001245;-65
2022/01/10 09:15:49;;;;;;;39.50;15.40;;;4.50;99.90;;;;;;1369230;28;10002049;-65
2022/01/10 09:18:18;;;;;;;45.57;15.20;;;4.50;99.90;;;;;;4973158;28;20241;-65
2022/01/10 09:20:47;;;;;;;42.73;14.67;;;4.50;99.90;;;;;;4972733;28;20480;-65
2022/01/10 09:23:15;;;;;;;31.97;14.53;;;4.60;99.90;;;;;;4972577;28;20482;-65
2022/01/10 09:25:44;;;;;;;34.87;16.53;;;4.70;99.90;;;;;;4972726;28;20833;-65
2022/01/10 09:28:13;;;;;;;35.87;15.33;;;4.60;99.90;;;;;;4972651;28;20500;-65
2022/01/10 09:30:43;;;;;;;32.20;13.43;;;4.70;99.90;;;;;;4971397;28;20497;-65
2022/01/10 09:33:11;;;;;;;29.13;15.30;;;4.80;99.90;;;;;;4953313;28;20472;-65
2022/01/10 09:35:40;;;;;;;21.80;14.60;;;4.70;99.90;;;;;;4952958;28;20483;-65
2022/01/10 09:38:08;;;;;;;23.17;14.07;;;4.60;99.90;;;;;;4953307;28;20566;-65
2022/01/10 09:40:36;;;;;;;20.57;13.57;;;4.60;99.90;;;;;;4953361;28;20831;-65
2022/01/10 09:43:10;;;;;;;21.07;14.53;;;4.60;99.90;;;;;;4953326;28;20512;-65
2022/01/10 09:45:39;;;;;;;20.10;14.47;;;4.60;99.90;;;;;;4953439;28;20485;-65
2022/01/10 09:48:08;;;;;;;19.70;14.30;;;4.70;99.90;;;;;;4956779;28;20477;-65
2022/01/10 09:50:37;;;;;;;21.37;16.07;;;4.90;99.90;;;;;;4952899;28;20491;-65
2022/01/10 09:53:06;;;;;;;20.80;15.63;;;4.70;99.90;;;;;;4953113;28;20565;-65
2022/01/10 09:55:34;;;;;;;18.97;15.13;;;4.70;99.90;;;;;;4952891;28;20493;-65
2022/01/10 09:58:04;;;;;;;19.47;15.00;;;4.70;99.90;;;;;;4953366;28;21030;-66
2022/01/10 10:00:32;;;;;;;19.47;15.47;;;4.70;99.90;;;;;;4972362;28;20484;-65
2022/01/10 10:03:01;;;;;;;17.50;14.93;;;4.70;99.90;;;;;;4972310;28;20828;-65
2022/01/10 10:05:30;;;;;;;17.10;13.80;;;4.70;99.90;;;;;;4972373;28;20852;-65
2022/01/10 10:07:58;;;;;;;18.93;14.87;;;4.70;99.90;;;;;;4971623;28;20521;-65
2022/01/10 10:10:29;;;;;;;19.87;15.90;;;4.90;99.90;;;;;;4969653;28;20477;-65
2022/01/10 10:12:57;;;;;;;20.50;16.17;;;4.80;99.90;;;;;;4971572;28;20548;-65
2022/01/10 10:15:30;;;;;;;18.07;14.90;;;4.80;99.90;;;;;;4972049;28;20458;-65
2022/01/10 10:17:58;;;;;;;19.17;14.80;;;4.80;99.90;;;;;;4972137;28;20523;-65
2022/01/10 10:20:28;;;;;;;18.87;16.23;;;4.90;99.90;;;;;;4971905;28;20485;-65
2022/01/10 10:23:17;;;;;;;19.07;15.00;;;4.90;99.90;;;;;;4972028;28;20820;-65
2022/01/10 10:25:53;;;;;;;19.40;16.17;;;4.90;99.90;;;;;;4972132;28;20511;-65
2022/01/10 10:28:21;;;;;;;17.23;14.37;;;5.00;99.90;;;;;;4971946;28;20508;-65
2022/01/10 10:30:57;;;;;;;18.63;16.00;;;5.00;99.90;;;;;;4971690;28;20470;-65
2022/01/10 10:33:26;;;;;;;18.63;14.07;;;5.00;99.90;;;;;;4971809;28;20476;-65
2022/01/10 10:35:57;;;;;;;20.83;16.47;;;5.00;99.90;;;;;;4972666;28;20541;-65
2022/01/10 10:38:27;;;;;;;19.90;15.13;;;5.00;99.90;;;;;;4978076;28;20465;-65
2022/01/10 10:41:00;;;;;;;22.93;17.67;;;5.20;99.90;;;;;;4978519;28;20485;-65
2022/01/10 10:43:30;;;;;;;18.93;16.00;;;5.10;99.90;;;;;;4978152;28;20511;-65
2022/01/10 10:46:01;;;;;;;20.60;16.27;;;5.10;99.90;;;;;;4978487;28;20563;-66
2022/01/10 10:48:30;;;;;;;22.87;17.83;;;5.10;99.90;;;;;;4977719;28;20488;-65
2022/01/10 10:50:59;;;;;;;20.57;16.33;;;5.20;99.90;;;;;;4977296;28;20858;-65
2022/01/10 10:53:30;;;;;;;20.73;17.53;;;5.10;99.90;;;;;;4987604;28;20479;-65
2022/01/10 10:55:59;;;;;;;22.20;17.00;;;5.20;99.90;;;;;;4979691;28;20468;-66
2022/01/10 10:58:32;;;;;;;22.20;17.90;;;5.10;99.90;;;;;;4973855;28;21452;-65
2022/01/10 11:01:02;;;;;;;21.83;17.67;;;5.10;99.90;;;;;;4973522;28;20480;-65
2022/01/10 11:03:30;;;;;;;21.43;16.40;;;5.20;99.90;;;;;;4972022;28;20862;-66
2022/01/10 11:06:03;;;;;;;23.80;17.57;;;5.20;99.90;;;;;;4972945;28;20493;-65
2022/01/10 11:08:35;;;;;;;22.03;17.27;;;5.20;99.90;;;;;;4972482;28;20538;-65
2022/01/10 11:11:04;;;;;;;20.37;16.27;;;5.20;99.90;;;;;;4972225;28;20519;-65
2022/01/10 11:13:32;;;;;;;23.63;18.77;;;5.30;99.90;;;;;;4971221;28;21040;-65
2022/01/10 11:16:01;;;;;;;20.90;16.87;;;5.30;99.90;;;;;;4973128;28;20893;-65
2022/01/10 11:18:41;;;;;;;21.98;16.85;;;5.30;99.90;;;;;;1988357;28;10024751;-65
2022/01/10 11:21:09;;;;;;;20.43;16.00;;;5.40;99.90;;;;;;4281393;28;10001104;-65
2022/01/10 11:23:44;;;;;;;21.73;17.23;;;5.60;99.90;;;;;;4971293;28;20480;-65
2022/01/10 11:26:14;;;;;;;21.43;17.20;;;5.60;99.90;;;;;;4970963;28;20525;-65
2022/01/10 11:28:54;;;;;;;20.20;16.23;;;5.60;99.90;;;;;;4971287;28;20481;-65
2022/01/10 11:31:24;;;;;;;21.03;16.90;;;5.60;99.90;;;;;;4971848;28;20488;-65
2022/01/10 11:33:54;;;;;;;21.03;17.10;;;5.70;99.90;;;;;;4970684;28;20473;-65
2022/01/10 11:36:25;;;;;;;21.73;17.40;;;5.70;99.90;;;;;;4972276;28;20477;-65
2022/01/10 11:38:56;;;;;;;21.27;16.97;;;5.60;99.90;;;;;;4972124;28;20822;-65
2022/01/10 11:41:26;;;;;;;21.17;16.97;;;5.70;99.90;;;;;;4972037;28;20796;-65
2022/01/10 11:44:04;;;;;;;20.17;16.10;;;5.70;99.90;;;;;;4970723;28;21080;-65
2022/01/10 11:46:37;;;;;;;21.20;16.70;;;5.70;99.90;;;;;;4972107;28;20583;-65
2022/01/10 11:49:17;;;;;;;20.27;15.43;;;5.80;99.90;;;;;;4969233;28;20492;-65
2022/01/10 11:51:59;;;;;;;21.17;16.33;;;5.70;99.90;;;;;;4968824;28;20478;-65
2022/01/10 11:54:31;;;;;;;22.30;17.53;;;5.80;99.90;;;;;;4967077;28;20862;-65
2022/01/10 11:57:01;;;;;;;20.70;17.03;;;5.80;99.90;;;;;;4968581;28;20484;-65
2022/01/10 11:59:30;;;;;;;21.27;17.43;;;5.90;99.90;;;;;;4967960;28;20589;-65
2022/01/10 12:02:03;;;;;;;21.13;16.87;;;6.00;99.90;;;;;;4968831;28;20575;-65
2022/01/10 12:04:33;;;;;;;20.47;16.43;;;5.90;99.90;;;;;;4964704;28;21070;-65
2022/01/10 12:07:01;;;;;;;20.67;16.97;;;5.90;99.90;;;;;;4968960;28;20657;-65
2022/01/10 12:09:32;;;;;;;20.33;16.73;;;5.90;99.90;;;;;;4966102;28;20468;-66
2022/01/10 12:12:08;;;;;;;20.97;16.93;;;6.00;99.90;;;;;;4959093;28;21055;-65
2022/01/10 12:14:37;;;;;;;19.97;16.40;;;5.90;99.90;;;;;;4966686;28;20482;-65
2022/01/10 12:17:07;;;;;;;21.47;17.17;;;5.80;99.90;;;;;;4968612;28;20340;-65
2022/01/10 12:19:36;;;;;;;21.13;16.87;;;5.80;99.90;;;;;;4967896;28;20552;-65
2022/01/10 12:22:06;;;;;;;20.47;16.50;;;5.80;99.90;;;;;;4968265;28;20249;-65
2022/01/10 12:24:36;;;;;;;19.97;16.60;;;5.90;99.90;;;;;;4966570;28;20260;-65
2022/01/10 12:27:06;;;;;;;18.60;15.13;;;6.00;99.90;;;;;;4967931;28;20655;-64
2022/01/10 12:29:35;;;;;;;19.70;14.77;;;6.00;99.90;;;;;;4967669;28;20485;-65
2022/01/10 12:32:05;;;;;;;17.77;14.70;;;5.90;99.90;;;;;;4968133;28;20749;-65
2022/01/10 12:34:33;;;;;;;17.30;13.47;;;6.00;99.90;;;;;;4966325;28;21016;-65
2022/01/10 12:37:01;;;;;;;19.60;16.30;;;6.10;99.90;;;;;;4960043;28;20482;-65
2022/01/10 12:39:30;;;;;;;19.90;16.10;;;6.00;99.90;;;;;;4967223;28;20474;-65
2022/01/10 12:42:01;;;;;;;19.00;16.07;;;6.10;99.90;;;;;;4967890;28;20301;-65
2022/01/10 12:44:29;;;;;;;17.67;13.57;;;6.10;99.90;;;;;;4965815;28;20267;-65
2022/01/10 12:46:57;;;;;;;18.90;15.83;;;6.20;99.90;;;;;;4967454;28;20301;-65
2022/01/10 12:49:26;;;;;;;19.67;14.03;;;6.20;99.90;;;;;;4967545;28;20238;-65
2022/01/10 12:51:56;;;;;;;18.63;15.27;;;6.10;99.90;;;;;;4967669;28;20250;-66
2022/01/10 12:54:30;;;;;;;18.43;15.77;;;6.10;99.90;;;;;;4962323;28;20492;-65
2022/01/10 12:57:02;;;;;;;19.63;15.03;;;6.10;99.90;;;;;;4967489;28;20472;-65
2022/01/10 12:59:32;;;;;;;19.07;15.67;;;6.00;99.90;;;;;;4967051;28;20861;-65
2022/01/10 13:02:01;;;;;;;19.70;16.10;;;6.00;99.90;;;;;;4967711;28;20488;-65
2022/01/10 13:04:34;;;;;;;18.23;15.60;;;6.00;99.90;;;;;;4966234;28;20537;-65
2022/01/10 13:07:07;;;;;;;15.67;13.30;;;5.90;99.90;;;;;;4963655;28;20478;-65